Guetsch, Switzerland
Current Conditions -  °F | °C
As of 7:50 PM on Tuesday 25 Nov 2014 (Local Time) from LSMM Reporting Station
Overcast Overcast  
Wind Chill: 46°   Ceiling: 800
Heat Index: 46°   Visibility: 4mi
Dew Point: 45°   Wind: 2mph
Humidity: 93%   Direction: 100°E
Pressure: 30.06"   Gusts: NA
Location:  46.65°N, 8.62°E
Report Text: LSMM 251850Z AUTO 10002KT 7000NDV OVC008 08/07 Q1018 RMK YLO
Loading
Personal Weather Stations






























Interactive Weather Map New forecast layout! Learn more

10-Day Weather Forecast

Advertisements
Track Severe Weather on mobile